sensor_id;sensor_type;location;lat;lon;timestamp;temperature;humidity
41939;DHT22;23057;48.554;14.454;2024-02-15T00:01:31;5.00;99.90
41939;DHT22;23057;48.554;14.454;2024-02-15T00:04:02;5.00;99.90
41939;DHT22;23057;48.554;14.454;2024-02-15T00:06:33;4.80;99.90
41939;DHT22;23057;48.554;14.454;2024-02-15T00:09:05;4.80;99.90
41939;DHT22;23057;48.554;14.454;2024-02-15T00:11:36;4.80;99.90
41939;DHT22;23057;48.554;14.454;2024-02-15T00:14:07;4.90;99.90
41939;DHT22;23057;48.554;14.454;2024-02-15T00:16:38;4.90;99.90
41939;DHT22;23057;48.554;14.454;2024-02-15T00:19:09;5.00;99.90
41939;DHT22;23057;48.554;14.454;2024-02-15T00:21:43;5.10;99.90
41939;DHT22;23057;48.554;14.454;2024-02-15T00:24:14;5.20;99.90
41939;DHT22;23057;48.554;14.454;2024-02-15T00:26:45;5.30;99.90
41939;DHT22;23057;48.554;14.454;2024-02-15T00:29:17;5.40;99.90
41939;DHT22;23057;48.554;14.454;2024-02-15T00:31:48;5.50;99.90
41939;DHT22;23057;48.554;14.454;2024-02-15T00:34:19;5.50;99.90
41939;DHT22;23057;48.554;14.454;2024-02-15T00:36:51;5.30;99.90
41939;DHT22;23057;48.554;14.454;2024-02-15T00:39:22;5.10;99.90
41939;DHT22;23057;48.554;14.454;2024-02-15T00:41:53;5.00;99.90
41939;DHT22;23057;48.554;14.454;2024-02-15T00:44:26;5.00;99.90
41939;DHT22;23057;48.554;14.454;2024-02-15T00:46:57;5.10;99.90
41939;DHT22;23057;48.554;14.454;2024-02-15T00:49:28;5.10;99.90
41939;DHT22;23057;48.554;14.454;2024-02-15T00:51:59;5.20;99.90
41939;DHT22;23057;48.554;14.454;2024-02-15T00:54:30;5.30;99.90
41939;DHT22;23057;48.554;14.454;2024-02-15T00:57:01;5.40;99.90
41939;DHT22;23057;48.554;14.454;2024-02-15T00:59:32;5.50;99.90
41939;DHT22;23057;48.554;14.454;2024-02-15T01:02:06;5.60;99.90
41939;DHT22;23057;48.554;14.454;2024-02-15T01:04:36;5.80;99.90
41939;DHT22;23057;48.554;14.454;2024-02-15T01:07:07;5.90;99.90
41939;DHT22;23057;48.554;14.454;2024-02-15T01:09:38;6.00;99.90
41939;DHT22;23057;48.554;14.454;2024-02-15T01:12:09;6.00;99.90
41939;DHT22;23057;48.554;14.454;2024-02-15T01:14:40;5.90;99.90
41939;DHT22;23057;48.554;14.454;2024-02-15T01:17:12;5.80;99.90
41939;DHT22;23057;48.554;14.454;2024-02-15T01:19:43;5.60;99.90
41939;DHT22;23057;48.554;14.454;2024-02-15T01:22:16;5.50;99.90
41939;DHT22;23057;48.554;14.454;2024-02-15T01:24:47;5.40;99.90
41939;DHT22;23057;48.554;14.454;2024-02-15T01:27:17;5.50;99.90
41939;DHT22;23057;48.554;14.454;2024-02-15T01:29:48;5.60;99.90
41939;DHT22;23057;48.554;14.454;2024-02-15T01:32:19;5.60;99.90
41939;DHT22;23057;48.554;14.454;2024-02-15T01:34:50;5.60;99.90
41939;DHT22;23057;48.554;14.454;2024-02-15T01:37:24;5.60;99.90
41939;DHT22;23057;48.554;14.454;2024-02-15T01:39:55;5.60;99.90
41939;DHT22;23057;48.554;14.454;2024-02-15T01:42:26;5.70;99.90
41939;DHT22;23057;48.554;14.454;2024-02-15T01:44:56;5.80;99.90
41939;DHT22;23057;48.554;14.454;2024-02-15T01:47:28;5.80;99.90
41939;DHT22;23057;48.554;14.454;2024-02-15T01:49:59;5.90;99.90
41939;DHT22;23057;48.554;14.454;2024-02-15T01:52:30;5.90;99.90
41939;DHT22;23057;48.554;14.454;2024-02-15T01:55:02;5.90;99.90
41939;DHT22;23057;48.554;14.454;2024-02-15T01:57:39;5.90;99.90
41939;DHT22;23057;48.554;14.454;2024-02-15T02:00:17;5.90;99.90
41939;DHT22;23057;48.554;14.454;2024-02-15T02:02:50;5.90;99.90
41939;DHT22;23057;48.554;14.454;2024-02-15T02:05:24;5.80;99.90
41939;DHT22;23057;48.554;14.454;2024-02-15T02:07:57;5.80;99.90
41939;DHT22;23057;48.554;14.454;2024-02-15T02:10:29;5.80;99.90
41939;DHT22;23057;48.554;14.454;2024-02-15T02:13:03;5.90;99.90
41939;DHT22;23057;48.554;14.454;2024-02-15T02:15:36;5.90;99.90
41939;DHT22;23057;48.554;14.454;2024-02-15T02:18:07;5.80;99.90
41939;DHT22;23057;48.554;14.454;2024-02-15T02:20:40;5.60;99.90
41939;DHT22;23057;48.554;14.454;2024-02-15T02:23:14;5.30;99.90
41939;DHT22;23057;48.554;14.454;2024-02-15T02:25:48;5.20;99.90
41939;DHT22;23057;48.554;14.454;2024-02-15T02:28:20;5.20;99.90
41939;DHT22;23057;48.554;14.454;2024-02-15T02:30:51;5.40;99.90
41939;DHT22;23057;48.554;14.454;2024-02-15T02:33:23;5.50;99.90
41939;DHT22;23057;48.554;14.454;2024-02-15T02:35:58;5.60;99.90
41939;DHT22;23057;48.554;14.454;2024-02-15T02:38:29;5.70;99.90
41939;DHT22;23057;48.554;14.454;2024-02-15T02:41:00;5.80;99.90
41939;DHT22;23057;48.554;14.454;2024-02-15T02:43:31;5.80;99.90
41939;DHT22;23057;48.554;14.454;2024-02-15T02:46:02;5.80;99.90
41939;DHT22;23057;48.554;14.454;2024-02-15T02:48:39;5.80;99.90
41939;DHT22;23057;48.554;14.454;2024-02-15T02:51:10;5.80;99.90
41939;DHT22;23057;48.554;14.454;2024-02-15T02:53:41;5.90;99.90
41939;DHT22;23057;48.554;14.454;2024-02-15T02:56:12;5.90;99.90
41939;DHT22;23057;48.554;14.454;2024-02-15T02:58:43;5.80;99.90
41939;DHT22;23057;48.554;14.454;2024-02-15T03:01:14;5.80;99.90
41939;DHT22;23057;48.554;14.454;2024-02-15T03:03:45;5.80;99.90
41939;DHT22;23057;48.554;14.454;2024-02-15T03:06:16;5.70;99.90
41939;DHT22;23057;48.554;14.454;2024-02-15T03:08:47;5.70;99.90
41939;DHT22;23057;48.554;14.454;2024-02-15T03:11:18;5.40;99.90
41939;DHT22;23057;48.554;14.454;2024-02-15T03:13:49;5.40;99.90
41939;DHT22;23057;48.554;14.454;2024-02-15T03:16:23;5.50;99.90
41939;DHT22;23057;48.554;14.454;2024-02-15T03:18:55;5.60;99.90
41939;DHT22;23057;48.554;14.454;2024-02-15T03:21:26;5.70;99.90
41939;DHT22;23057;48.554;14.454;2024-02-15T03:23:57;5.70;99.90
41939;DHT22;23057;48.554;14.454;2024-02-15T03:26:32;5.80;99.90
41939;DHT22;23057;48.554;14.454;2024-02-15T03:29:07;5.80;99.90
41939;DHT22;23057;48.554;14.454;2024-02-15T03:31:40;5.70;99.90
41939;DHT22;23057;48.554;14.454;2024-02-15T03:34:11;5.60;99.90
41939;DHT22;23057;48.554;14.454;2024-02-15T03:36:45;5.60;99.90
41939;DHT22;23057;48.554;14.454;2024-02-15T03:39:16;5.50;99.90
41939;DHT22;23057;48.554;14.454;2024-02-15T03:41:47;5.50;99.90
41939;DHT22;23057;48.554;14.454;2024-02-15T03:44:18;5.50;99.90
41939;DHT22;23057;48.554;14.454;2024-02-15T03:46:49;5.50;99.90
41939;DHT22;23057;48.554;14.454;2024-02-15T03:49:21;5.50;99.90
41939;DHT22;23057;48.554;14.454;2024-02-15T03:51:53;5.50;99.90
41939;DHT22;23057;48.554;14.454;2024-02-15T03:54:25;5.50;99.90
41939;DHT22;23057;48.554;14.454;2024-02-15T03:56:56;5.50;99.90
41939;DHT22;23057;48.554;14.454;2024-02-15T03:59:27;5.50;99.90
41939;DHT22;23057;48.554;14.454;2024-02-15T04:01:58;5.50;99.90
41939;DHT22;23057;48.554;14.454;2024-02-15T04:04:29;5.60;99.90
41939;DHT22;23057;48.554;14.454;2024-02-15T04:07:00;5.60;99.90
41939;DHT22;23057;48.554;14.454;2024-02-15T04:09:31;5.60;99.90
41939;DHT22;23057;48.554;14.454;2024-02-15T04:12:03;5.60;99.90
41939;DHT22;23057;48.554;14.454;2024-02-15T04:14:34;5.60;99.90
41939;DHT22;23057;48.554;14.454;2024-02-15T04:17:05;5.60;99.90
41939;DHT22;23057;48.554;14.454;2024-02-15T04:19:37;5.60;99.90
41939;DHT22;23057;48.554;14.454;2024-02-15T04:22:07;5.60;99.90
41939;DHT22;23057;48.554;14.454;2024-02-15T04:24:38;5.50;99.90
41939;DHT22;23057;48.554;14.454;2024-02-15T04:27:10;5.50;99.90
41939;DHT22;23057;48.554;14.454;2024-02-15T04:29:42;5.50;99.90
41939;DHT22;23057;48.554;14.454;2024-02-15T04:32:14;5.50;99.90
41939;DHT22;23057;48.554;14.454;2024-02-15T04:34:46;5.40;99.90
41939;DHT22;23057;48.554;14.454;2024-02-15T04:37:17;5.40;99.90
41939;DHT22;23057;48.554;14.454;2024-02-15T04:39:48;5.40;99.90
41939;DHT22;23057;48.554;14.454;2024-02-15T04:42:19;5.40;99.90
41939;DHT22;23057;48.554;14.454;2024-02-15T04:44:50;5.50;99.90
41939;DHT22;23057;48.554;14.454;2024-02-15T04:47:23;5.50;99.90
41939;DHT22;23057;48.554;14.454;2024-02-15T04:49:54;5.50;99.90
41939;DHT22;23057;48.554;14.454;2024-02-15T04:52:25;5.50;99.90
41939;DHT22;23057;48.554;14.454;2024-02-15T04:54:56;5.50;99.90
41939;DHT22;23057;48.554;14.454;2024-02-15T04:57:29;5.50;99.90
41939;DHT22;23057;48.554;14.454;2024-02-15T05:00:00;5.50;99.90
41939;DHT22;23057;48.554;14.454;2024-02-15T05:02:31;5.40;99.90
41939;DHT22;23057;48.554;14.454;2024-02-15T05:05:02;5.40;99.90
41939;DHT22;23057;48.554;14.454;2024-02-15T05:07:34;5.40;99.90
41939;DHT22;23057;48.554;14.454;2024-02-15T05:10:08;5.40;99.90
41939;DHT22;23057;48.554;14.454;2024-02-15T05:12:40;5.40;99.90
41939;DHT22;23057;48.554;14.454;2024-02-15T05:15:10;5.40;99.90
41939;DHT22;23057;48.554;14.454;2024-02-15T05:17:41;5.40;99.90
41939;DHT22;23057;48.554;14.454;2024-02-15T05:20:12;5.30;99.90
41939;DHT22;23057;48.554;14.454;2024-02-15T05:22:43;5.30;99.90
41939;DHT22;23057;48.554;14.454;2024-02-15T05:25:16;5.30;99.90
41939;DHT22;23057;48.554;14.454;2024-02-15T05:27:54;5.30;99.90
41939;DHT22;23057;48.554;14.454;2024-02-15T05:30:25;5.30;99.90
41939;DHT22;23057;48.554;14.454;2024-02-15T05:32:56;5.30;99.90
41939;DHT22;23057;48.554;14.454;2024-02-15T05:35:27;5.30;99.90
41939;DHT22;23057;48.554;14.454;2024-02-15T05:37:58;5.40;99.90
41939;DHT22;23057;48.554;14.454;2024-02-15T05:40:29;5.30;99.90
41939;DHT22;23057;48.554;14.454;2024-02-15T05:43:00;5.30;99.90
41939;DHT22;23057;48.554;14.454;2024-02-15T05:45:32;5.30;99.90
41939;DHT22;23057;48.554;14.454;2024-02-15T05:48:05;5.30;99.90
41939;DHT22;23057;48.554;14.454;2024-02-15T05:50:39;5.30;99.90
41939;DHT22;23057;48.554;14.454;2024-02-15T05:53:10;5.30;99.90
41939;DHT22;23057;48.554;14.454;2024-02-15T05:55:41;5.30;99.90
41939;DHT22;23057;48.554;14.454;2024-02-15T05:58:14;5.30;99.90
41939;DHT22;23057;48.554;14.454;2024-02-15T06:00:47;5.30;99.90
41939;DHT22;23057;48.554;14.454;2024-02-15T06:03:20;5.30;99.90
41939;DHT22;23057;48.554;14.454;2024-02-15T06:05:57;5.30;99.90
41939;DHT22;23057;48.554;14.454;2024-02-15T06:08:33;5.30;99.90
41939;DHT22;23057;48.554;14.454;2024-02-15T06:11:05;5.30;99.90
41939;DHT22;23057;48.554;14.454;2024-02-15T06:13:36;5.30;99.90
41939;DHT22;23057;48.554;14.454;2024-02-15T06:16:06;5.30;99.90
41939;DHT22;23057;48.554;14.454;2024-02-15T06:18:40;5.30;99.90
41939;DHT22;23057;48.554;14.454;2024-02-15T06:21:10;5.30;99.90
41939;DHT22;23057;48.554;14.454;2024-02-15T06:23:41;5.30;99.90
41939;DHT22;23057;48.554;14.454;2024-02-15T06:26:12;5.30;99.90
41939;DHT22;23057;48.554;14.454;2024-02-15T06:28:43;5.30;99.90
41939;DHT22;23057;48.554;14.454;2024-02-15T06:31:33;5.30;99.90
41939;DHT22;23057;48.554;14.454;2024-02-15T06:34:22;5.30;99.90
41939;DHT22;23057;48.554;14.454;2024-02-15T06:37:35;5.30;99.90
41939;DHT22;23057;48.554;14.454;2024-02-15T06:40:26;5.30;99.90
41939;DHT22;23057;48.554;14.454;2024-02-15T06:42:59;5.20;99.90
41939;DHT22;23057;48.554;14.454;2024-02-15T06:45:30;5.30;99.90
41939;DHT22;23057;48.554;14.454;2024-02-15T06:48:02;5.20;99.90
41939;DHT22;23057;48.554;14.454;2024-02-15T06:50:33;5.20;99.90
41939;DHT22;23057;48.554;14.454;2024-02-15T06:53:07;5.20;99.90
41939;DHT22;23057;48.554;14.454;2024-02-15T06:55:38;5.30;99.90
41939;DHT22;23057;48.554;14.454;2024-02-15T06:58:10;5.40;99.90
41939;DHT22;23057;48.554;14.454;2024-02-15T07:00:43;5.60;99.90
41939;DHT22;23057;48.554;14.454;2024-02-15T07:03:14;5.90;99.90
41939;DHT22;23057;48.554;14.454;2024-02-15T07:05:47;6.50;99.90
41939;DHT22;23057;48.554;14.454;2024-02-15T07:08:18;6.70;99.90
41939;DHT22;23057;48.554;14.454;2024-02-15T07:10:48;7.00;99.90
41939;DHT22;23057;48.554;14.454;2024-02-15T07:13:21;7.00;99.90
41939;DHT22;23057;48.554;14.454;2024-02-15T07:15:52;6.70;99.90
41939;DHT22;23057;48.554;14.454;2024-02-15T07:18:23;6.40;99.90
41939;DHT22;23057;48.554;14.454;2024-02-15T07:20:55;6.20;99.90
41939;DHT22;23057;48.554;14.454;2024-02-15T07:23:29;5.90;99.90
41939;DHT22;23057;48.554;14.454;2024-02-15T07:26:00;5.60;99.90
41939;DHT22;23057;48.554;14.454;2024-02-15T07:28:31;5.70;99.90
41939;DHT22;23057;48.554;14.454;2024-02-15T07:31:02;6.00;99.90
41939;DHT22;23057;48.554;14.454;2024-02-15T07:33:33;6.10;99.90
41939;DHT22;23057;48.554;14.454;2024-02-15T07:36:05;6.30;99.90
41939;DHT22;23057;48.554;14.454;2024-02-15T07:38:36;6.90;99.90
41939;DHT22;23057;48.554;14.454;2024-02-15T07:41:07;7.20;99.90
41939;DHT22;23057;48.554;14.454;2024-02-15T07:43:38;7.20;99.90
41939;DHT22;23057;48.554;14.454;2024-02-15T07:46:13;7.30;99.90
41939;DHT22;23057;48.554;14.454;2024-02-15T07:48:46;7.40;99.90
41939;DHT22;23057;48.554;14.454;2024-02-15T07:51:20;7.20;99.90
41939;DHT22;23057;48.554;14.454;2024-02-15T07:53:53;7.20;99.90
41939;DHT22;23057;48.554;14.454;2024-02-15T07:56:24;7.10;99.90
41939;DHT22;23057;48.554;14.454;2024-02-15T07:58:54;7.30;99.90
41939;DHT22;23057;48.554;14.454;2024-02-15T08:01:25;7.40;99.90
41939;DHT22;23057;48.554;14.454;2024-02-15T08:03:56;7.60;99.90
41939;DHT22;23057;48.554;14.454;2024-02-15T08:06:27;8.00;99.90
41939;DHT22;23057;48.554;14.454;2024-02-15T08:08:58;8.20;99.90
41939;DHT22;23057;48.554;14.454;2024-02-15T08:11:29;8.50;99.90
41939;DHT22;23057;48.554;14.454;2024-02-15T08:14:00;8.60;99.90
41939;DHT22;23057;48.554;14.454;2024-02-15T08:16:31;9.10;99.90
41939;DHT22;23057;48.554;14.454;2024-02-15T08:19:04;9.00;99.90
41939;DHT22;23057;48.554;14.454;2024-02-15T08:21:35;9.10;99.90
41939;DHT22;23057;48.554;14.454;2024-02-15T08:24:07;9.10;99.90
41939;DHT22;23057;48.554;14.454;2024-02-15T08:26:39;9.10;99.90
41939;DHT22;23057;48.554;14.454;2024-02-15T08:29:12;9.00;99.90
41939;DHT22;23057;48.554;14.454;2024-02-15T08:31:45;9.40;99.90
41939;DHT22;23057;48.554;14.454;2024-02-15T08:34:16;9.70;99.90
41939;DHT22;23057;48.554;14.454;2024-02-15T08:36:48;9.60;1.00
41939;DHT22;23057;48.554;14.454;2024-02-15T08:39:19;9.60;99.90
41939;DHT22;23057;48.554;14.454;2024-02-15T08:41:52;10.10;99.90
41939;DHT22;23057;48.554;14.454;2024-02-15T08:44:23;10.10;99.90
41939;DHT22;23057;48.554;14.454;2024-02-15T08:46:55;10.00;1.00
41939;DHT22;23057;48.554;14.454;2024-02-15T08:49:26;10.10;1.00
41939;DHT22;23057;48.554;14.454;2024-02-15T08:51:57;10.40;1.00
41939;DHT22;23057;48.554;14.454;2024-02-15T08:54:29;10.60;99.90
41939;DHT22;23057;48.554;14.454;2024-02-15T08:57:03;10.70;99.90
41939;DHT22;23057;48.554;14.454;2024-02-15T08:59:35;10.80;99.90
41939;DHT22;23057;48.554;14.454;2024-02-15T09:02:05;10.90;99.90
41939;DHT22;23057;48.554;14.454;2024-02-15T09:04:36;10.70;99.90
41939;DHT22;23057;48.554;14.454;2024-02-15T09:07:07;10.70;99.90
41939;DHT22;23057;48.554;14.454;2024-02-15T09:09:39;10.80;99.90
41939;DHT22;23057;48.554;14.454;2024-02-15T09:12:10;10.90;99.90
41939;DHT22;23057;48.554;14.454;2024-02-15T09:14:42;11.00;99.90
41939;DHT22;23057;48.554;14.454;2024-02-15T09:17:13;11.10;99.90
41939;DHT22;23057;48.554;14.454;2024-02-15T09:19:47;11.40;59.70
41939;DHT22;23057;48.554;14.454;2024-02-15T09:22:20;11.50;42.70
41939;DHT22;23057;48.554;14.454;2024-02-15T09:24:51;11.50;6.50
41939;DHT22;23057;48.554;14.454;2024-02-15T09:27:21;11.30;5.00
41939;DHT22;23057;48.554;14.454;2024-02-15T09:29:52;11.40;19.20
41939;DHT22;23057;48.554;14.454;2024-02-15T09:32:23;11.30;91.60
41939;DHT22;23057;48.554;14.454;2024-02-15T09:34:54;11.10;99.90
41939;DHT22;23057;48.554;14.454;2024-02-15T09:37:24;10.80;99.90
41939;DHT22;23057;48.554;14.454;2024-02-15T09:39:58;11.00;99.90
41939;DHT22;23057;48.554;14.454;2024-02-15T09:42:34;10.80;99.90
41939;DHT22;23057;48.554;14.454;2024-02-15T09:45:07;10.80;99.90
41939;DHT22;23057;48.554;14.454;2024-02-15T09:47:43;10.80;99.90
41939;DHT22;23057;48.554;14.454;2024-02-15T09:50:16;11.60;99.90
41939;DHT22;23057;48.554;14.454;2024-02-15T09:52:52;12.00;25.30
41939;DHT22;23057;48.554;14.454;2024-02-15T09:55:28;12.30;1.00
41939;DHT22;23057;48.554;14.454;2024-02-15T09:57:59;12.50;1.00
41939;DHT22;23057;48.554;14.454;2024-02-15T10:00:31;12.50;99.90
41939;DHT22;23057;48.554;14.454;2024-02-15T10:03:05;12.50;99.90
41939;DHT22;23057;48.554;14.454;2024-02-15T10:05:37;12.50;99.90
41939;DHT22;23057;48.554;14.454;2024-02-15T10:08:10;12.20;99.90
41939;DHT22;23057;48.554;14.454;2024-02-15T10:10:41;12.40;99.90
41939;DHT22;23057;48.554;14.454;2024-02-15T10:13:15;12.80;99.90
41939;DHT22;23057;48.554;14.454;2024-02-15T10:15:54;13.20;99.90
41939;DHT22;23057;48.554;14.454;2024-02-15T10:18:24;13.10;99.90
41939;DHT22;23057;48.554;14.454;2024-02-15T10:20:58;13.20;99.90
41939;DHT22;23057;48.554;14.454;2024-02-15T10:23:29;13.20;99.90
41939;DHT22;23057;48.554;14.454;2024-02-15T10:26:19;12.80;99.90
41939;DHT22;23057;48.554;14.454;2024-02-15T10:29:09;12.80;99.90
41939;DHT22;23057;48.554;14.454;2024-02-15T10:31:53;12.90;99.90
41939;DHT22;23057;48.554;14.454;2024-02-15T10:34:26;13.70;99.90
41939;DHT22;23057;48.554;14.454;2024-02-15T10:37:14;13.90;99.90
41939;DHT22;23057;48.554;14.454;2024-02-15T10:40:05;14.00;99.90
41939;DHT22;23057;48.554;14.454;2024-02-15T10:42:38;13.90;99.90
41939;DHT22;23057;48.554;14.454;2024-02-15T10:45:15;13.70;99.90
41939;DHT22;23057;48.554;14.454;2024-02-15T10:47:48;13.90;99.90
41939;DHT22;23057;48.554;14.454;2024-02-15T10:50:19;13.60;99.90
41939;DHT22;23057;48.554;14.454;2024-02-15T10:52:55;13.60;99.90
41939;DHT22;23057;48.554;14.454;2024-02-15T10:55:38;13.40;99.90
41939;DHT22;23057;48.554;14.454;2024-02-15T10:58:19;13.40;99.90
41939;DHT22;23057;48.554;14.454;2024-02-15T11:00:53;13.40;99.90
41939;DHT22;23057;48.554;14.454;2024-02-15T11:03:35;13.30;99.90
41939;DHT22;23057;48.554;14.454;2024-02-15T11:06:12;13.50;99.90
41939;DHT22;23057;48.554;14.454;2024-02-15T11:08:45;13.80;99.90
41939;DHT22;23057;48.554;14.454;2024-02-15T11:11:17;13.80;99.90
41939;DHT22;23057;48.554;14.454;2024-02-15T11:13:50;13.70;99.90
41939;DHT22;23057;48.554;14.454;2024-02-15T11:17:01;14.00;99.90
41939;DHT22;23057;48.554;14.454;2024-02-15T11:24:52;14.10;99.90
41939;DHT22;23057;48.554;14.454;2024-02-15T11:27:23;13.80;99.90
41939;DHT22;23057;48.554;14.454;2024-02-15T11:30:00;13.70;99.90
41939;DHT22;23057;48.554;14.454;2024-02-15T11:32:47;13.50;99.90
41939;DHT22;23057;48.554;14.454;2024-02-15T11:35:22;13.50;99.90
41939;DHT22;23057;48.554;14.454;2024-02-15T11:38:00;13.70;99.90
41939;DHT22;23057;48.554;14.454;2024-02-15T11:46:16;13.30;99.90
41939;DHT22;23057;48.554;14.454;2024-02-15T11:48:50;14.20;99.90
41939;DHT22;23057;48.554;14.454;2024-02-15T11:51:33;14.50;99.90
41939;DHT22;23057;48.554;14.454;2024-02-15T11:54:12;14.60;63.90
41939;DHT22;23057;48.554;14.454;2024-02-15T11:59:14;14.70;58.90
41939;DHT22;23057;48.554;14.454;2024-02-15T12:02:03;13.40;99.90
41939;DHT22;23057;48.554;14.454;2024-02-15T12:04:52;13.10;99.90
41939;DHT22;23057;48.554;14.454;2024-02-15T12:07:42;13.70;99.90
41939;DHT22;23057;48.554;14.454;2024-02-15T12:10:31;14.50;99.90
41939;DHT22;23057;48.554;14.454;2024-02-15T12:13:21;14.90;93.30
41939;DHT22;23057;48.554;14.454;2024-02-15T12:16:15;15.10;9.20
41939;DHT22;23057;48.554;14.454;2024-02-15T12:19:05;15.10;24.00
41939;DHT22;23057;48.554;14.454;2024-02-15T12:21:35;14.40;58.80
41939;DHT22;23057;48.554;14.454;2024-02-15T12:24:11;14.50;66.60
41939;DHT22;23057;48.554;14.454;2024-02-15T12:26:42;14.70;17.80
41939;DHT22;23057;48.554;14.454;2024-02-15T12:29:17;14.90;1.00
41939;DHT22;23057;48.554;14.454;2024-02-15T12:31:48;15.30;14.60
41939;DHT22;23057;48.554;14.454;2024-02-15T12:34:20;15.50;1.00
41939;DHT22;23057;48.554;14.454;2024-02-15T12:37:05;15.30;1.00
41939;DHT22;23057;48.554;14.454;2024-02-15T12:39:39;14.90;1.00
41939;DHT22;23057;48.554;14.454;2024-02-15T12:42:11;15.00;1.00
41939;DHT22;23057;48.554;14.454;2024-02-15T12:44:49;15.10;1.00
41939;DHT22;23057;48.554;14.454;2024-02-15T12:47:20;15.20;1.00
41939;DHT22;23057;48.554;14.454;2024-02-15T12:49:53;15.00;1.00
41939;DHT22;23057;48.554;14.454;2024-02-15T12:55:16;15.30;1.00
41939;DHT22;23057;48.554;14.454;2024-02-15T12:57:52;15.50;1.00
41939;DHT22;23057;48.554;14.454;2024-02-15T13:00:27;15.30;1.00
41939;DHT22;23057;48.554;14.454;2024-02-15T13:03:04;15.10;1.00
41939;DHT22;23057;48.554;14.454;2024-02-15T13:05:40;15.00;1.00
41939;DHT22;23057;48.554;14.454;2024-02-15T13:08:11;15.00;1.00
41939;DHT22;23057;48.554;14.454;2024-02-15T13:10:46;15.40;1.00
41939;DHT22;23057;48.554;14.454;2024-02-15T13:13:17;15.50;1.00
41939;DHT22;23057;48.554;14.454;2024-02-15T13:15:48;14.90;1.00
41939;DHT22;23057;48.554;14.454;2024-02-15T13:18:19;14.20;99.90
41939;DHT22;23057;48.554;14.454;2024-02-15T13:20:49;14.50;1.00
41939;DHT22;23057;48.554;14.454;2024-02-15T13:23:23;14.60;1.00
41939;DHT22;23057;48.554;14.454;2024-02-15T13:25:55;15.00;4.60
41939;DHT22;23057;48.554;14.454;2024-02-15T13:28:34;14.50;1.00
41939;DHT22;23057;48.554;14.454;2024-02-15T13:31:05;14.50;37.70
41939;DHT22;23057;48.554;14.454;2024-02-15T13:33:37;14.70;5.70
41939;DHT22;23057;48.554;14.454;2024-02-15T13:36:08;15.00;1.00
41939;DHT22;23057;48.554;14.454;2024-02-15T13:38:41;14.90;1.00
41939;DHT22;23057;48.554;14.454;2024-02-15T13:41:12;14.90;1.00
41939;DHT22;23057;48.554;14.454;2024-02-15T13:43:43;14.90;1.00
41939;DHT22;23057;48.554;14.454;2024-02-15T13:46:14;14.20;12.50
41939;DHT22;23057;48.554;14.454;2024-02-15T13:48:46;14.20;13.90
41939;DHT22;23057;48.554;14.454;2024-02-15T13:51:17;13.80;41.30
41939;DHT22;23057;48.554;14.454;2024-02-15T13:53:49;13.40;93.50
41939;DHT22;23057;48.554;14.454;2024-02-15T13:56:20;13.20;99.90
41939;DHT22;23057;48.554;14.454;2024-02-15T13:58:52;13.40;99.90
41939;DHT22;23057;48.554;14.454;2024-02-15T14:01:23;13.80;99.90
41939;DHT22;23057;48.554;14.454;2024-02-15T14:03:55;13.60;99.90
41939;DHT22;23057;48.554;14.454;2024-02-15T14:06:26;13.70;99.90
41939;DHT22;23057;48.554;14.454;2024-02-15T14:08:57;13.80;85.10
41939;DHT22;23057;48.554;14.454;2024-02-15T14:11:28;13.50;99.90
41939;DHT22;23057;48.554;14.454;2024-02-15T14:13:58;13.70;94.60
41939;DHT22;23057;48.554;14.454;2024-02-15T14:16:29;13.10;99.90
41939;DHT22;23057;48.554;14.454;2024-02-15T14:19:00;12.80;99.90
41939;DHT22;23057;48.554;14.454;2024-02-15T14:21:34;12.80;99.90
41939;DHT22;23057;48.554;14.454;2024-02-15T14:24:08;12.60;99.90
41939;DHT22;23057;48.554;14.454;2024-02-15T14:26:39;12.30;99.90
41939;DHT22;23057;48.554;14.454;2024-02-15T14:29:10;12.30;99.90
41939;DHT22;23057;48.554;14.454;2024-02-15T14:31:43;12.30;99.90
41939;DHT22;23057;48.554;14.454;2024-02-15T14:34:32;12.20;99.90
41939;DHT22;23057;48.554;14.454;2024-02-15T14:37:06;12.20;99.90
41939;DHT22;23057;48.554;14.454;2024-02-15T14:39:37;12.10;99.90
41939;DHT22;23057;48.554;14.454;2024-02-15T14:42:08;12.00;99.90
41939;DHT22;23057;48.554;14.454;2024-02-15T14:44:39;12.10;99.90
41939;DHT22;23057;48.554;14.454;2024-02-15T14:47:09;11.90;99.90
41939;DHT22;23057;48.554;14.454;2024-02-15T14:49:40;12.00;99.90
41939;DHT22;23057;48.554;14.454;2024-02-15T14:52:11;12.00;99.90
41939;DHT22;23057;48.554;14.454;2024-02-15T14:54:42;12.00;99.90
41939;DHT22;23057;48.554;14.454;2024-02-15T14:57:13;12.00;99.90
41939;DHT22;23057;48.554;14.454;2024-02-15T14:59:45;12.10;99.90
41939;DHT22;23057;48.554;14.454;2024-02-15T15:02:16;12.30;99.90
41939;DHT22;23057;48.554;14.454;2024-02-15T15:04:46;12.60;99.90
41939;DHT22;23057;48.554;14.454;2024-02-15T15:07:36;12.70;99.90
41939;DHT22;23057;48.554;14.454;2024-02-15T15:10:25;12.50;99.90
41939;DHT22;23057;48.554;14.454;2024-02-15T15:13:15;12.50;99.90
41939;DHT22;23057;48.554;14.454;2024-02-15T15:15:46;12.40;99.90
41939;DHT22;23057;48.554;14.454;2024-02-15T15:18:18;12.50;99.90
41939;DHT22;23057;48.554;14.454;2024-02-15T15:20:49;12.40;99.90
41939;DHT22;23057;48.554;14.454;2024-02-15T15:23:21;12.30;99.90
41939;DHT22;23057;48.554;14.454;2024-02-15T15:25:52;12.20;99.90
41939;DHT22;23057;48.554;14.454;2024-02-15T15:28:23;11.90;99.90
41939;DHT22;23057;48.554;14.454;2024-02-15T15:30:54;11.80;99.90
41939;DHT22;23057;48.554;14.454;2024-02-15T15:33:27;11.70;99.90
41939;DHT22;23057;48.554;14.454;2024-02-15T15:35:57;11.80;99.90
41939;DHT22;23057;48.554;14.454;2024-02-15T15:38:34;12.00;99.90
41939;DHT22;23057;48.554;14.454;2024-02-15T15:41:07;12.00;99.90
41939;DHT22;23057;48.554;14.454;2024-02-15T15:43:39;11.80;99.90
41939;DHT22;23057;48.554;14.454;2024-02-15T15:46:16;11.70;99.90
41939;DHT22;23057;48.554;14.454;2024-02-15T15:48:47;11.60;99.90
41939;DHT22;23057;48.554;14.454;2024-02-15T15:51:18;11.60;99.90
41939;DHT22;23057;48.554;14.454;2024-02-15T15:53:48;11.50;99.90
41939;DHT22;23057;48.554;14.454;2024-02-15T15:56:21;11.40;99.90
41939;DHT22;23057;48.554;14.454;2024-02-15T15:58:52;11.30;1.00
41939;DHT22;23057;48.554;14.454;2024-02-15T16:01:23;11.20;1.00
41939;DHT22;23057;48.554;14.454;2024-02-15T16:03:54;11.20;1.00
41939;DHT22;23057;48.554;14.454;2024-02-15T16:06:24;11.10;1.00
41939;DHT22;23057;48.554;14.454;2024-02-15T16:08:55;11.10;1.00
41939;DHT22;23057;48.554;14.454;2024-02-15T16:11:26;10.90;1.00
41939;DHT22;23057;48.554;14.454;2024-02-15T16:13:57;10.80;1.00
41939;DHT22;23057;48.554;14.454;2024-02-15T16:16:28;10.70;21.80
41939;DHT22;23057;48.554;14.454;2024-02-15T16:18:59;10.70;60.80